sensor_id;sensor_type;location;lat;lon;timestamp;P1;durP1;ratioP1;P2;durP2;ratioP2
32216;SDS011;67098;51.140;4.088;2023-07-13T00:01:47;11.00;;;2.40;;
32216;SDS011;67098;51.140;4.088;2023-07-13T00:04:18;7.50;;;2.03;;
32216;SDS011;67098;51.140;4.088;2023-07-13T00:06:46;9.85;;;2.03;;
32216;SDS011;67098;51.140;4.088;2023-07-13T00:09:13;11.23;;;2.33;;
32216;SDS011;67098;51.140;4.088;2023-07-13T00:11:40;13.18;;;2.55;;
32216;SDS011;67098;51.140;4.088;2023-07-13T00:14:07;11.95;;;2.60;;
32216;SDS011;67098;51.140;4.088;2023-07-13T00:16:34;13.50;;;2.40;;
32216;SDS011;67098;51.140;4.088;2023-07-13T00:19:01;16.35;;;3.03;;
32216;SDS011;67098;51.140;4.088;2023-07-13T00:21:27;14.95;;;2.08;;
32216;SDS011;67098;51.140;4.088;2023-07-13T00:23:52;12.00;;;2.40;;
32216;SDS011;67098;51.140;4.088;2023-07-13T00:26:18;16.15;;;3.30;;
32216;SDS011;67098;51.140;4.088;2023-07-13T00:28:44;16.58;;;2.50;;
32216;SDS011;67098;51.140;4.088;2023-07-13T00:31:11;13.30;;;2.72;;
32216;SDS011;67098;51.140;4.088;2023-07-13T00:33:37;10.82;;;2.70;;
32216;SDS011;67098;51.140;4.088;2023-07-13T00:36:03;14.57;;;2.35;;
32216;SDS011;67098;51.140;4.088;2023-07-13T00:38:29;17.15;;;3.25;;
32216;SDS011;67098;51.140;4.088;2023-07-13T00:40:55;12.18;;;2.47;;
32216;SDS011;67098;51.140;4.088;2023-07-13T00:43:22;11.98;;;3.03;;
32216;SDS011;67098;51.140;4.088;2023-07-13T00:48:17;14.65;;;3.28;;
32216;SDS011;67098;51.140;4.088;2023-07-13T00:50:46;17.33;;;2.97;;
32216;SDS011;67098;51.140;4.088;2023-07-13T00:53:15;15.10;;;2.67;;
32216;SDS011;67098;51.140;4.088;2023-07-13T00:55:42;14.65;;;2.90;;
32216;SDS011;67098;51.140;4.088;2023-07-13T00:58:08;16.98;;;3.25;;
32216;SDS011;67098;51.140;4.088;2023-07-13T01:00:34;12.70;;;2.78;;
32216;SDS011;67098;51.140;4.088;2023-07-13T01:03:02;15.70;;;3.17;;
32216;SDS011;67098;51.140;4.088;2023-07-13T01:05:29;10.65;;;3.00;;
32216;SDS011;67098;51.140;4.088;2023-07-13T01:07:57;14.98;;;3.03;;
32216;SDS011;67098;51.140;4.088;2023-07-13T01:10:24;15.27;;;3.80;;
32216;SDS011;67098;51.140;4.088;2023-07-13T01:12:50;14.27;;;3.33;;
32216;SDS011;67098;51.140;4.088;2023-07-13T01:15:39;10.82;;;2.83;;
32216;SDS011;67098;51.140;4.088;2023-07-13T01:18:07;9.30;;;2.70;;
32216;SDS011;67098;51.140;4.088;2023-07-13T01:20:35;19.40;;;3.78;;
32216;SDS011;67098;51.140;4.088;2023-07-13T01:23:07;17.83;;;3.33;;
32216;SDS011;67098;51.140;4.088;2023-07-13T01:25:35;15.70;;;3.25;;
32216;SDS011;67098;51.140;4.088;2023-07-13T01:28:03;18.58;;;3.47;;
32216;SDS011;67098;51.140;4.088;2023-07-13T01:30:30;15.00;;;3.15;;
32216;SDS011;67098;51.140;4.088;2023-07-13T01:32:57;24.85;;;3.70;;
32216;SDS011;67098;51.140;4.088;2023-07-13T01:35:23;15.13;;;3.13;;
32216;SDS011;67098;51.140;4.088;2023-07-13T01:37:52;14.35;;;4.45;;
32216;SDS011;67098;51.140;4.088;2023-07-13T01:40:18;16.50;;;3.60;;
32216;SDS011;67098;51.140;4.088;2023-07-13T01:42:45;21.67;;;3.58;;
32216;SDS011;67098;51.140;4.088;2023-07-13T01:45:11;15.40;;;3.40;;
32216;SDS011;67098;51.140;4.088;2023-07-13T01:47:37;13.88;;;3.15;;
32216;SDS011;67098;51.140;4.088;2023-07-13T01:50:03;20.27;;;2.97;;
32216;SDS011;67098;51.140;4.088;2023-07-13T01:52:29;18.95;;;3.45;;
32216;SDS011;67098;51.140;4.088;2023-07-13T01:54:55;14.35;;;3.42;;
32216;SDS011;67098;51.140;4.088;2023-07-13T01:57:20;17.13;;;3.47;;
32216;SDS011;67098;51.140;4.088;2023-07-13T01:59:46;17.38;;;3.45;;
32216;SDS011;67098;51.140;4.088;2023-07-13T02:02:12;19.88;;;3.35;;
32216;SDS011;67098;51.140;4.088;2023-07-13T02:04:37;19.15;;;3.63;;
32216;SDS011;67098;51.140;4.088;2023-07-13T02:07:03;24.25;;;4.00;;
32216;SDS011;67098;51.140;4.088;2023-07-13T02:09:29;17.65;;;3.58;;
32216;SDS011;67098;51.140;4.088;2023-07-13T02:11:56;18.60;;;3.45;;
32216;SDS011;67098;51.140;4.088;2023-07-13T02:14:22;18.30;;;3.17;;
32216;SDS011;67098;51.140;4.088;2023-07-13T02:16:48;15.85;;;3.38;;
32216;SDS011;67098;51.140;4.088;2023-07-13T02:19:14;21.13;;;4.07;;
32216;SDS011;67098;51.140;4.088;2023-07-13T02:21:40;15.77;;;3.95;;
32216;SDS011;67098;51.140;4.088;2023-07-13T02:24:05;21.98;;;4.22;;
32216;SDS011;67098;51.140;4.088;2023-07-13T02:26:31;26.65;;;4.25;;
32216;SDS011;67098;51.140;4.088;2023-07-13T02:28:57;14.88;;;3.55;;
32216;SDS011;67098;51.140;4.088;2023-07-13T02:31:23;19.85;;;3.40;;
32216;SDS011;67098;51.140;4.088;2023-07-13T02:33:48;17.35;;;3.92;;
32216;SDS011;67098;51.140;4.088;2023-07-13T02:36:14;19.80;;;3.35;;
32216;SDS011;67098;51.140;4.088;2023-07-13T02:38:41;22.80;;;3.83;;
32216;SDS011;67098;51.140;4.088;2023-07-13T02:41:07;17.23;;;3.08;;
32216;SDS011;67098;51.140;4.088;2023-07-13T02:43:34;19.63;;;4.05;;
32216;SDS011;67098;51.140;4.088;2023-07-13T02:46:01;16.70;;;3.92;;
32216;SDS011;67098;51.140;4.088;2023-07-13T02:48:32;15.18;;;3.42;;
32216;SDS011;67098;51.140;4.088;2023-07-13T02:50:59;12.60;;;3.33;;
32216;SDS011;67098;51.140;4.088;2023-07-13T02:53:25;19.77;;;3.58;;
32216;SDS011;67098;51.140;4.088;2023-07-13T02:55:52;18.60;;;3.40;;
32216;SDS011;67098;51.140;4.088;2023-07-13T02:58:17;15.15;;;3.33;;
32216;SDS011;67098;51.140;4.088;2023-07-13T03:00:44;24.20;;;3.70;;
32216;SDS011;67098;51.140;4.088;2023-07-13T03:03:11;20.02;;;3.40;;
32216;SDS011;67098;51.140;4.088;2023-07-13T03:05:40;15.18;;;3.30;;
32216;SDS011;67098;51.140;4.088;2023-07-13T03:08:08;13.15;;;3.03;;
32216;SDS011;67098;51.140;4.088;2023-07-13T03:10:37;25.73;;;3.97;;
32216;SDS011;67098;51.140;4.088;2023-07-13T03:13:04;17.60;;;3.67;;
32216;SDS011;67098;51.140;4.088;2023-07-13T03:15:30;23.10;;;4.88;;
32216;SDS011;67098;51.140;4.088;2023-07-13T03:17:56;14.73;;;3.75;;
32216;SDS011;67098;51.140;4.088;2023-07-13T03:20:22;19.92;;;4.18;;
32216;SDS011;67098;51.140;4.088;2023-07-13T03:22:48;19.00;;;3.97;;
32216;SDS011;67098;51.140;4.088;2023-07-13T03:25:13;17.83;;;3.42;;
32216;SDS011;67098;51.140;4.088;2023-07-13T03:27:39;20.48;;;4.13;;
32216;SDS011;67098;51.140;4.088;2023-07-13T03:30:05;17.63;;;3.67;;
32216;SDS011;67098;51.140;4.088;2023-07-13T03:32:31;20.70;;;4.03;;
32216;SDS011;67098;51.140;4.088;2023-07-13T03:34:57;24.13;;;4.07;;
32216;SDS011;67098;51.140;4.088;2023-07-13T03:37:23;18.55;;;3.97;;
32216;SDS011;67098;51.140;4.088;2023-07-13T03:39:49;18.33;;;3.30;;
32216;SDS011;67098;51.140;4.088;2023-07-13T03:42:15;15.98;;;3.67;;
32216;SDS011;67098;51.140;4.088;2023-07-13T03:44:41;21.98;;;4.38;;
32216;SDS011;67098;51.140;4.088;2023-07-13T03:47:11;18.90;;;4.22;;
32216;SDS011;67098;51.140;4.088;2023-07-13T03:49:37;18.45;;;3.83;;
32216;SDS011;67098;51.140;4.088;2023-07-13T03:52:03;15.68;;;3.25;;
32216;SDS011;67098;51.140;4.088;2023-07-13T03:54:29;20.80;;;4.32;;
32216;SDS011;67098;51.140;4.088;2023-07-13T03:56:55;17.08;;;3.30;;
32216;SDS011;67098;51.140;4.088;2023-07-13T03:59:20;17.55;;;4.07;;
32216;SDS011;67098;51.140;4.088;2023-07-13T04:01:46;19.77;;;3.63;;
32216;SDS011;67098;51.140;4.088;2023-07-13T04:04:12;25.17;;;4.15;;
32216;SDS011;67098;51.140;4.088;2023-07-13T04:06:38;15.73;;;3.50;;
32216;SDS011;67098;51.140;4.088;2023-07-13T04:09:04;20.10;;;3.75;;
32216;SDS011;67098;51.140;4.088;2023-07-13T04:11:33;23.42;;;4.05;;
32216;SDS011;67098;51.140;4.088;2023-07-13T04:14:01;19.88;;;4.07;;
32216;SDS011;67098;51.140;4.088;2023-07-13T04:16:27;15.40;;;3.35;;
32216;SDS011;67098;51.140;4.088;2023-07-13T04:18:54;17.85;;;4.00;;
32216;SDS011;67098;51.140;4.088;2023-07-13T04:21:24;22.20;;;4.00;;
32216;SDS011;67098;51.140;4.088;2023-07-13T04:23:54;18.77;;;4.27;;
32216;SDS011;67098;51.140;4.088;2023-07-13T04:26:20;18.85;;;3.65;;
32216;SDS011;67098;51.140;4.088;2023-07-13T04:28:47;20.10;;;4.72;;
32216;SDS011;67098;51.140;4.088;2023-07-13T04:31:14;17.48;;;3.95;;
32216;SDS011;67098;51.140;4.088;2023-07-13T04:33:40;22.35;;;4.00;;
32216;SDS011;67098;51.140;4.088;2023-07-13T04:36:05;23.02;;;4.20;;
32216;SDS011;67098;51.140;4.088;2023-07-13T04:38:34;30.17;;;4.13;;
32216;SDS011;67098;51.140;4.088;2023-07-13T04:41:01;24.10;;;5.03;;
32216;SDS011;67098;51.140;4.088;2023-07-13T04:43:29;23.52;;;4.07;;
32216;SDS011;67098;51.140;4.088;2023-07-13T04:45:55;23.20;;;4.57;;
32216;SDS011;67098;51.140;4.088;2023-07-13T04:48:22;24.38;;;3.67;;
32216;SDS011;67098;51.140;4.088;2023-07-13T04:50:53;19.90;;;4.28;;
32216;SDS011;67098;51.140;4.088;2023-07-13T04:53:20;20.15;;;3.97;;
32216;SDS011;67098;51.140;4.088;2023-07-13T04:55:46;20.50;;;4.53;;
32216;SDS011;67098;51.140;4.088;2023-07-13T04:58:12;21.33;;;3.58;;
32216;SDS011;67098;51.140;4.088;2023-07-13T05:00:38;21.38;;;3.80;;
32216;SDS011;67098;51.140;4.088;2023-07-13T05:03:04;22.98;;;4.35;;
32216;SDS011;67098;51.140;4.088;2023-07-13T05:05:30;18.10;;;3.97;;
32216;SDS011;67098;51.140;4.088;2023-07-13T05:07:56;26.55;;;4.55;;
32216;SDS011;67098;51.140;4.088;2023-07-13T05:10:22;22.35;;;4.43;;
32216;SDS011;67098;51.140;4.088;2023-07-13T05:12:48;19.85;;;3.65;;
32216;SDS011;67098;51.140;4.088;2023-07-13T05:15:14;21.23;;;4.07;;
32216;SDS011;67098;51.140;4.088;2023-07-13T05:17:41;17.33;;;4.20;;
32216;SDS011;67098;51.140;4.088;2023-07-13T05:20:08;20.05;;;4.30;;
32216;SDS011;67098;51.140;4.088;2023-07-13T05:22:34;18.00;;;3.55;;
32216;SDS011;67098;51.140;4.088;2023-07-13T05:25:06;23.17;;;4.60;;
32216;SDS011;67098;51.140;4.088;2023-07-13T05:27:33;20.73;;;3.95;;
32216;SDS011;67098;51.140;4.088;2023-07-13T05:30:00;14.30;;;3.90;;
32216;SDS011;67098;51.140;4.088;2023-07-13T05:32:27;21.60;;;3.95;;
32216;SDS011;67098;51.140;4.088;2023-07-13T05:34:52;20.48;;;3.65;;
32216;SDS011;67098;51.140;4.088;2023-07-13T05:37:18;21.08;;;4.53;;
32216;SDS011;67098;51.140;4.088;2023-07-13T05:39:44;18.15;;;3.72;;
32216;SDS011;67098;51.140;4.088;2023-07-13T05:42:10;17.30;;;3.85;;
32216;SDS011;67098;51.140;4.088;2023-07-13T05:44:35;17.35;;;3.85;;
32216;SDS011;67098;51.140;4.088;2023-07-13T05:47:01;21.92;;;4.35;;
32216;SDS011;67098;51.140;4.088;2023-07-13T05:49:27;19.67;;;3.95;;
32216;SDS011;67098;51.140;4.088;2023-07-13T05:51:55;21.95;;;4.38;;
32216;SDS011;67098;51.140;4.088;2023-07-13T05:54:21;13.88;;;3.70;;
32216;SDS011;67098;51.140;4.088;2023-07-13T05:56:47;20.15;;;4.82;;
32216;SDS011;67098;51.140;4.088;2023-07-13T05:59:13;17.27;;;4.03;;
32216;SDS011;67098;51.140;4.088;2023-07-13T06:01:38;17.30;;;4.10;;
32216;SDS011;67098;51.140;4.088;2023-07-13T06:04:04;22.92;;;4.50;;
32216;SDS011;67098;51.140;4.088;2023-07-13T06:06:30;22.80;;;4.28;;
32216;SDS011;67098;51.140;4.088;2023-07-13T06:08:56;18.13;;;3.88;;
32216;SDS011;67098;51.140;4.088;2023-07-13T06:11:22;20.42;;;4.00;;
32216;SDS011;67098;51.140;4.088;2023-07-13T06:13:49;21.20;;;4.28;;
32216;SDS011;67098;51.140;4.088;2023-07-13T06:16:16;20.65;;;4.63;;
32216;SDS011;67098;51.140;4.088;2023-07-13T06:18:42;22.17;;;3.75;;
32216;SDS011;67098;51.140;4.088;2023-07-13T06:21:09;25.40;;;4.20;;
32216;SDS011;67098;51.140;4.088;2023-07-13T06:23:46;23.30;;;4.72;;
32216;SDS011;67098;51.140;4.088;2023-07-13T06:26:15;15.10;;;3.80;;
32216;SDS011;67098;51.140;4.088;2023-07-13T06:28:43;19.20;;;3.22;;
32216;SDS011;67098;51.140;4.088;2023-07-13T06:31:11;18.15;;;4.13;;
32216;SDS011;67098;51.140;4.088;2023-07-13T06:33:38;18.40;;;3.70;;
32216;SDS011;67098;51.140;4.088;2023-07-13T06:36:04;14.95;;;3.35;;
32216;SDS011;67098;51.140;4.088;2023-07-13T06:38:32;15.77;;;3.95;;
32216;SDS011;67098;51.140;4.088;2023-07-13T06:40:59;14.18;;;3.15;;
32216;SDS011;67098;51.140;4.088;2023-07-13T06:43:24;19.83;;;3.97;;
32216;SDS011;67098;51.140;4.088;2023-07-13T06:45:51;12.50;;;3.30;;
32216;SDS011;67098;51.140;4.088;2023-07-13T06:48:19;18.75;;;3.78;;
32216;SDS011;67098;51.140;4.088;2023-07-13T06:50:46;19.25;;;3.80;;
32216;SDS011;67098;51.140;4.088;2023-07-13T06:53:13;15.98;;;3.28;;
32216;SDS011;67098;51.140;4.088;2023-07-13T06:55:38;14.07;;;3.78;;
32216;SDS011;67098;51.140;4.088;2023-07-13T06:58:04;19.92;;;4.22;;
32216;SDS011;67098;51.140;4.088;2023-07-13T07:00:31;21.10;;;4.30;;
32216;SDS011;67098;51.140;4.088;2023-07-13T07:02:57;18.40;;;3.85;;
32216;SDS011;67098;51.140;4.088;2023-07-13T07:05:23;25.83;;;3.88;;
32216;SDS011;67098;51.140;4.088;2023-07-13T07:07:52;24.02;;;4.45;;
32216;SDS011;67098;51.140;4.088;2023-07-13T07:10:19;20.98;;;4.28;;
32216;SDS011;67098;51.140;4.088;2023-07-13T07:12:45;21.23;;;4.78;;
32216;SDS011;67098;51.140;4.088;2023-07-13T07:15:11;15.10;;;3.42;;
32216;SDS011;67098;51.140;4.088;2023-07-13T07:17:37;19.98;;;3.88;;
32216;SDS011;67098;51.140;4.088;2023-07-13T07:20:03;15.93;;;3.60;;
32216;SDS011;67098;51.140;4.088;2023-07-13T07:22:30;16.00;;;3.50;;
32216;SDS011;67098;51.140;4.088;2023-07-13T07:24:56;14.57;;;4.15;;
32216;SDS011;67098;51.140;4.088;2023-07-13T07:27:22;22.15;;;4.70;;
32216;SDS011;67098;51.140;4.088;2023-07-13T07:29:48;18.20;;;4.05;;
32216;SDS011;67098;51.140;4.088;2023-07-13T07:32:14;17.33;;;4.18;;
32216;SDS011;67098;51.140;4.088;2023-07-13T07:34:40;21.27;;;4.18;;
32216;SDS011;67098;51.140;4.088;2023-07-13T07:37:06;20.35;;;4.28;;
32216;SDS011;67098;51.140;4.088;2023-07-13T07:39:31;16.65;;;4.15;;
32216;SDS011;67098;51.140;4.088;2023-07-13T07:41:57;18.27;;;3.80;;
32216;SDS011;67098;51.140;4.088;2023-07-13T07:44:23;16.23;;;4.30;;
32216;SDS011;67098;51.140;4.088;2023-07-13T07:46:49;16.40;;;3.80;;
32216;SDS011;67098;51.140;4.088;2023-07-13T07:49:15;21.85;;;4.05;;
32216;SDS011;67098;51.140;4.088;2023-07-13T07:51:41;15.18;;;3.75;;
32216;SDS011;67098;51.140;4.088;2023-07-13T07:54:07;15.07;;;3.88;;
32216;SDS011;67098;51.140;4.088;2023-07-13T07:56:33;18.88;;;3.35;;
32216;SDS011;67098;51.140;4.088;2023-07-13T07:58:58;28.33;;;4.28;;
32216;SDS011;67098;51.140;4.088;2023-07-13T08:01:24;36.58;;;3.80;;
32216;SDS011;67098;51.140;4.088;2023-07-13T08:03:50;24.23;;;4.40;;
32216;SDS011;67098;51.140;4.088;2023-07-13T08:06:16;15.43;;;4.35;;
32216;SDS011;67098;51.140;4.088;2023-07-13T08:08:44;15.88;;;4.00;;
32216;SDS011;67098;51.140;4.088;2023-07-13T08:11:10;17.90;;;4.00;;
32216;SDS011;67098;51.140;4.088;2023-07-13T08:13:36;15.45;;;3.88;;
32216;SDS011;67098;51.140;4.088;2023-07-13T08:16:03;17.77;;;3.50;;
32216;SDS011;67098;51.140;4.088;2023-07-13T08:18:30;13.00;;;3.25;;
32216;SDS011;67098;51.140;4.088;2023-07-13T08:20:56;15.20;;;3.83;;
32216;SDS011;67098;51.140;4.088;2023-07-13T08:23:25;14.20;;;3.50;;
32216;SDS011;67098;51.140;4.088;2023-07-13T08:25:54;14.70;;;3.78;;
32216;SDS011;67098;51.140;4.088;2023-07-13T08:28:20;23.13;;;3.67;;
32216;SDS011;67098;51.140;4.088;2023-07-13T08:30:47;14.65;;;3.42;;
32216;SDS011;67098;51.140;4.088;2023-07-13T08:33:15;13.45;;;2.83;;
32216;SDS011;67098;51.140;4.088;2023-07-13T08:35:45;11.35;;;3.08;;
32216;SDS011;67098;51.140;4.088;2023-07-13T08:38:12;20.02;;;3.65;;
32216;SDS011;67098;51.140;4.088;2023-07-13T08:40:38;9.85;;;2.70;;
32216;SDS011;67098;51.140;4.088;2023-07-13T08:43:07;11.38;;;2.50;;
32216;SDS011;67098;51.140;4.088;2023-07-13T08:45:46;10.63;;;2.75;;
32216;SDS011;67098;51.140;4.088;2023-07-13T08:53:16;17.83;;;2.67;;
32216;SDS011;67098;51.140;4.088;2023-07-13T08:55:43;11.35;;;2.67;;
32216;SDS011;67098;51.140;4.088;2023-07-13T08:58:14;18.05;;;2.92;;
32216;SDS011;67098;51.140;4.088;2023-07-13T09:03:16;14.02;;;2.53;;
32216;SDS011;67098;51.140;4.088;2023-07-13T09:05:48;14.38;;;2.60;;
32216;SDS011;67098;51.140;4.088;2023-07-13T09:08:46;15.05;;;3.38;;
32216;SDS011;67098;51.140;4.088;2023-07-13T09:16:16;15.32;;;3.17;;
32216;SDS011;67098;51.140;4.088;2023-07-13T09:18:47;14.82;;;3.03;;
32216;SDS011;67098;51.140;4.088;2023-07-13T09:23:43;18.00;;;3.10;;
32216;SDS011;67098;51.140;4.088;2023-07-13T09:28:46;15.60;;;3.17;;
32216;SDS011;67098;51.140;4.088;2023-07-13T09:31:16;13.18;;;2.78;;
32216;SDS011;67098;51.140;4.088;2023-07-13T09:34:04;9.50;;;2.72;;
32216;SDS011;67098;51.140;4.088;2023-07-13T09:36:35;9.68;;;2.35;;
32216;SDS011;67098;51.140;4.088;2023-07-13T09:39:43;9.48;;;2.40;;
32216;SDS011;67098;51.140;4.088;2023-07-13T09:42:12;11.15;;;2.42;;
32216;SDS011;67098;51.140;4.088;2023-07-13T09:47:28;10.95;;;2.25;;
32216;SDS011;67098;51.140;4.088;2023-07-13T09:50:04;10.43;;;2.53;;
32216;SDS011;67098;51.140;4.088;2023-07-13T09:52:40;10.43;;;2.58;;
32216;SDS011;67098;51.140;4.088;2023-07-13T09:58:20;10.15;;;2.25;;
32216;SDS011;67098;51.140;4.088;2023-07-13T10:01:21;7.38;;;2.30;;
32216;SDS011;67098;51.140;4.088;2023-07-13T10:03:43;9.80;;;2.00;;
32216;SDS011;67098;51.140;4.088;2023-07-13T10:06:19;8.68;;;2.47;;
32216;SDS011;67098;51.140;4.088;2023-07-13T10:08:51;7.72;;;2.05;;
32216;SDS011;67098;51.140;4.088;2023-07-13T10:14:30;8.73;;;2.05;;
32216;SDS011;67098;51.140;4.088;2023-07-13T10:16:42;8.93;;;2.13;;
32216;SDS011;67098;51.140;4.088;2023-07-13T10:22:02;7.78;;;2.10;;
32216;SDS011;67098;51.140;4.088;2023-07-13T10:24:39;10.32;;;2.47;;
32216;SDS011;67098;51.140;4.088;2023-07-13T10:27:23;7.90;;;2.40;;
32216;SDS011;67098;51.140;4.088;2023-07-13T10:29:59;6.43;;;1.80;;
32216;SDS011;67098;51.140;4.088;2023-07-13T10:32:34;8.02;;;2.17;;
32216;SDS011;67098;51.140;4.088;2023-07-13T10:35:00;11.98;;;2.72;;
32216;SDS011;67098;51.140;4.088;2023-07-13T10:37:31;4.57;;;1.60;;
32216;SDS011;67098;51.140;4.088;2023-07-13T10:40:11;5.67;;;2.03;;
32216;SDS011;67098;51.140;4.088;2023-07-13T10:42:42;7.70;;;2.20;;
32216;SDS011;67098;51.140;4.088;2023-07-13T10:45:15;6.53;;;1.73;;
32216;SDS011;67098;51.140;4.088;2023-07-13T10:47:44;7.30;;;1.80;;
32216;SDS011;67098;51.140;4.088;2023-07-13T10:50:15;5.93;;;1.83;;
32216;SDS011;67098;51.140;4.088;2023-07-13T10:52:49;6.65;;;1.92;;
32216;SDS011;67098;51.140;4.088;2023-07-13T10:55:33;8.02;;;1.92;;
32216;SDS011;67098;51.140;4.088;2023-07-13T10:58:02;6.05;;;2.08;;
32216;SDS011;67098;51.140;4.088;2023-07-13T11:00:35;9.25;;;2.55;;
32216;SDS011;67098;51.140;4.088;2023-07-13T11:03:18;8.80;;;2.90;;
32216;SDS011;67098;51.140;4.088;2023-07-13T11:05:50;12.10;;;2.70;;
32216;SDS011;67098;51.140;4.088;2023-07-13T11:08:34;7.55;;;2.50;;
32216;SDS011;67098;51.140;4.088;2023-07-13T11:11:32;10.95;;;2.83;;
32216;SDS011;67098;51.140;4.088;2023-07-13T11:14:02;6.38;;;2.53;;
32216;SDS011;67098;51.140;4.088;2023-07-13T11:24:49;12.57;;;4.47;;
32216;SDS011;67098;51.140;4.088;2023-07-13T11:27:42;10.35;;;4.30;;
32216;SDS011;67098;51.140;4.088;2023-07-13T11:35:50;8.20;;;3.15;;
32216;SDS011;67098;51.140;4.088;2023-07-13T11:41:03;9.18;;;3.03;;
32216;SDS011;67098;51.140;4.088;2023-07-13T11:43:32;8.65;;;3.15;;
32216;SDS011;67098;51.140;4.088;2023-07-13T11:46:11;9.13;;;3.35;;
32216;SDS011;67098;51.140;4.088;2023-07-13T11:48:48;12.35;;;3.05;;
32216;SDS011;67098;51.140;4.088;2023-07-13T11:51:20;8.00;;;2.70;;
32216;SDS011;67098;51.140;4.088;2023-07-13T11:53:56;7.43;;;2.33;;
32216;SDS011;67098;51.140;4.088;2023-07-13T11:56:26;5.95;;;2.05;;
32216;SDS011;67098;51.140;4.088;2023-07-13T11:58:52;6.20;;;1.98;;
32216;SDS011;67098;51.140;4.088;2023-07-13T12:01:24;4.68;;;1.90;;
32216;SDS011;67098;51.140;4.088;2023-07-13T12:03:59;5.70;;;1.88;;
32216;SDS011;67098;51.140;4.088;2023-07-13T12:06:30;5.40;;;1.92;;
32216;SDS011;67098;51.140;4.088;2023-07-13T12:09:01;4.75;;;1.90;;
32216;SDS011;67098;51.140;4.088;2023-07-13T12:11:29;4.07;;;2.00;;
32216;SDS011;67098;51.140;4.088;2023-07-13T12:13:59;7.13;;;2.05;;
32216;SDS011;67098;51.140;4.088;2023-07-13T12:16:30;8.00;;;1.67;;
32216;SDS011;67098;51.140;4.088;2023-07-13T12:18:59;7.53;;;1.90;;
32216;SDS011;67098;51.140;4.088;2023-07-13T12:21:33;4.30;;;1.92;;
32216;SDS011;67098;51.140;4.088;2023-07-13T12:24:02;4.68;;;2.25;;
32216;SDS011;67098;51.140;4.088;2023-07-13T12:26:29;7.40;;;2.40;;
32216;SDS011;67098;51.140;4.088;2023-07-13T12:28:56;5.28;;;1.98;;
32216;SDS011;67098;51.140;4.088;2023-07-13T12:36:38;4.68;;;1.85;;
32216;SDS011;67098;51.140;4.088;2023-07-13T12:39:12;7.30;;;2.10;;
32216;SDS011;67098;51.140;4.088;2023-07-13T12:41:42;9.43;;;1.73;;
32216;SDS011;67098;51.140;4.088;2023-07-13T12:44:10;8.95;;;2.63;;
32216;SDS011;67098;51.140;4.088;2023-07-13T12:46:38;5.78;;;2.30;;
32216;SDS011;67098;51.140;4.088;2023-07-13T12:49:05;8.18;;;2.55;;
32216;SDS011;67098;51.140;4.088;2023-07-13T12:51:32;7.57;;;2.53;;
32216;SDS011;67098;51.140;4.088;2023-07-13T12:54:19;7.32;;;2.88;;
32216;SDS011;67098;51.140;4.088;2023-07-13T12:56:44;6.85;;;2.08;;
32216;SDS011;67098;51.140;4.088;2023-07-13T12:59:20;9.35;;;2.72;;
32216;SDS011;67098;51.140;4.088;2023-07-13T13:01:47;5.65;;;2.20;;
32216;SDS011;67098;51.140;4.088;2023-07-13T13:04:18;7.68;;;2.22;;
32216;SDS011;67098;51.140;4.088;2023-07-13T13:06:48;9.45;;;2.42;;
32216;SDS011;67098;51.140;4.088;2023-07-13T13:09:15;7.72;;;2.03;;
32216;SDS011;67098;51.140;4.088;2023-07-13T13:11:43;6.47;;;2.13;;
32216;SDS011;67098;51.140;4.088;2023-07-13T13:14:09;6.47;;;2.22;;
32216;SDS011;67098;51.140;4.088;2023-07-13T13:16:35;5.35;;;2.00;;
32216;SDS011;67098;51.140;4.088;2023-07-13T13:21:45;10.05;;;2.38;;
32216;SDS011;67098;51.140;4.088;2023-07-13T13:24:12;6.65;;;2.40;;
32216;SDS011;67098;51.140;4.088;2023-07-13T13:26:43;5.88;;;2.30;;
32216;SDS011;67098;51.140;4.088;2023-07-13T13:29:14;6.30;;;2.30;;
32216;SDS011;67098;51.140;4.088;2023-07-13T13:31:41;6.68;;;2.15;;
32216;SDS011;67098;51.140;4.088;2023-07-13T13:34:12;8.48;;;2.47;;
32216;SDS011;67098;51.140;4.088;2023-07-13T13:36:40;7.40;;;2.45;;
32216;SDS011;67098;51.140;4.088;2023-07-13T13:39:23;4.65;;;2.20;;
32216;SDS011;67098;51.140;4.088;2023-07-13T13:41:51;4.90;;;2.30;;
32216;SDS011;67098;51.140;4.088;2023-07-13T13:44:18;5.97;;;1.92;;
32216;SDS011;67098;51.140;4.088;2023-07-13T13:46:46;5.82;;;2.10;;
32216;SDS011;67098;51.140;4.088;2023-07-13T13:49:15;9.50;;;2.22;;
32216;SDS011;67098;51.140;4.088;2023-07-13T13:51:44;9.67;;;2.83;;
32216;SDS011;67098;51.140;4.088;2023-07-13T13:54:14;10.00;;;2.50;;
32216;SDS011;67098;51.140;4.088;2023-07-13T13:56:42;7.70;;;2.20;;
32216;SDS011;67098;51.140;4.088;2023-07-13T13:59:09;10.63;;;2.72;;
32216;SDS011;67098;51.140;4.088;2023-07-13T14:01:35;6.15;;;1.90;;
32216;SDS011;67098;51.140;4.088;2023-07-13T14:04:01;6.10;;;1.85;;
32216;SDS011;67098;51.140;4.088;2023-07-13T14:06:27;6.70;;;1.83;;
32216;SDS011;67098;51.140;4.088;2023-07-13T14:08:53;8.50;;;2.05;;
32216;SDS011;67098;51.140;4.088;2023-07-13T14:11:20;5.55;;;2.13;;
32216;SDS011;67098;51.140;4.088;2023-07-13T14:13:48;8.18;;;1.73;;
32216;SDS011;67098;51.140;4.088;2023-07-13T14:16:22;9.85;;;1.85;;
32216;SDS011;67098;51.140;4.088;2023-07-13T14:18:53;6.20;;;2.10;;
32216;SDS011;67098;51.140;4.088;2023-07-13T14:21:20;5.80;;;1.75;;
32216;SDS011;67098;51.140;4.088;2023-07-13T14:23:47;7.03;;;1.80;;
32216;SDS011;67098;51.140;4.088;2023-07-13T14:26:18;6.22;;;2.10;;
32216;SDS011;67098;51.140;4.088;2023-07-13T14:31:21;5.93;;;2.22;;
32216;SDS011;67098;51.140;4.088;2023-07-13T14:33:49;6.72;;;1.70;;
32216;SDS011;67098;51.140;4.088;2023-07-13T14:36:25;4.43;;;1.90;;
32216;SDS011;67098;51.140;4.088;2023-07-13T14:38:57;6.47;;;1.88;;
32216;SDS011;67098;51.140;4.088;2023-07-13T14:41:24;3.80;;;1.45;;
32216;SDS011;67098;51.140;4.088;2023-07-13T14:43:50;5.88;;;1.65;;
32216;SDS011;67098;51.140;4.088;2023-07-13T14:46:34;5.60;;;1.98;;
32216;SDS011;67098;51.140;4.088;2023-07-13T14:49:04;5.63;;;1.85;;
32216;SDS011;67098;51.140;4.088;2023-07-13T14:51:50;6.32;;;2.22;;
32216;SDS011;67098;51.140;4.088;2023-07-13T14:54:17;4.43;;;1.88;;
32216;SDS011;67098;51.140;4.088;2023-07-13T14:56:43;4.68;;;1.67;;
32216;SDS011;67098;51.140;4.088;2023-07-13T14:59:09;5.20;;;1.88;;
32216;SDS011;67098;51.140;4.088;2023-07-13T15:01:36;4.60;;;1.95;;
32216;SDS011;67098;51.140;4.088;2023-07-13T15:04:02;6.75;;;2.00;;
32216;SDS011;67098;51.140;4.088;2023-07-13T15:06:29;5.85;;;2.00;;
32216;SDS011;67098;51.140;4.088;2023-07-13T15:08:56;6.82;;;2.55;;
32216;SDS011;67098;51.140;4.088;2023-07-13T15:11:22;6.57;;;2.35;;
32216;SDS011;67098;51.140;4.088;2023-07-13T15:13:49;4.78;;;1.75;;
32216;SDS011;67098;51.140;4.088;2023-07-13T15:16:21;7.00;;;2.35;;
32216;SDS011;67098;51.140;4.088;2023-07-13T15:18:48;5.40;;;1.90;;
32216;SDS011;67098;51.140;4.088;2023-07-13T15:21:24;6.22;;;2.10;;
32216;SDS011;67098;51.140;4.088;2023-07-13T15:23:50;11.82;;;2.17;;
32216;SDS011;67098;51.140;4.088;2023-07-13T15:26:17;5.32;;;1.83;;
32216;SDS011;67098;51.140;4.088;2023-07-13T15:28:44;6.60;;;2.28;;
32216;SDS011;67098;51.140;4.088;2023-07-13T15:31:19;8.25;;;2.35;;
32216;SDS011;67098;51.140;4.088;2023-07-13T15:33:53;6.70;;;1.85;;
32216;SDS011;67098;51.140;4.088;2023-07-13T15:36:22;9.02;;;2.42;;
32216;SDS011;67098;51.140;4.088;2023-07-13T15:38:51;8.32;;;2.08;;
32216;SDS011;67098;51.140;4.088;2023-07-13T15:43:45;4.13;;;1.60;;
32216;SDS011;67098;51.140;4.088;2023-07-13T15:46:12;3.97;;;1.83;;
32216;SDS011;67098;51.140;4.088;2023-07-13T15:48:37;3.15;;;1.65;;